Time;durP1;ratioP1;P1;durP2;ratioP2;P2;SDS_P1;SDS_P2;PMS_P1;PMS_P2;Temp;Humidity;BMP_temperature;BMP_pressure;BME280_temperature;BME280_humidity;BME280_pressure;Samples;Min_cycle;Max_cycle;Signal;HPM_P1;HPM_P2
2023/05/31 00:02:07;;;;;;;0.30;0.30;;;8.20;99.90;;;;;;5034222;28;20032;-74
2023/05/31 00:04:33;;;;;;;0.13;0.13;;;8.20;99.90;;;;;;5033960;28;20542;-74
2023/05/31 00:06:59;;;;;;;0.20;0.20;;;8.10;99.90;;;;;;5034219;28;20388;-74
2023/05/31 00:09:24;;;;;;;0.20;0.20;;;8.10;99.90;;;;;;5034229;28;20025;-74
2023/05/31 00:11:50;;;;;;;0.20;0.20;;;8.10;99.90;;;;;;5033926;28;20061;-74
2023/05/31 00:14:15;;;;;;;0.20;0.20;;;8.10;99.90;;;;;;5033827;28;20033;-74
2023/05/31 00:16:41;;;;;;;0.15;0.15;;;8.00;99.90;;;;;;5033970;28;20394;-74
2023/05/31 00:19:07;;;;;;;0.20;0.20;;;8.00;99.90;;;;;;5033888;28;20025;-74
2023/05/31 00:21:33;;;;;;;0.17;0.17;;;8.00;99.90;;;;;;5033737;28;20033;-74
2023/05/31 00:23:58;;;;;;;0.20;0.20;;;7.90;99.90;;;;;;5033372;28;20018;-74
2023/05/31 00:26:24;;;;;;;0.17;0.17;;;7.90;99.90;;;;;;5033830;28;20026;-74
2023/05/31 00:28:50;;;;;;;0.15;0.15;;;7.90;99.90;;;;;;5033828;28;20483;-75
2023/05/31 00:31:16;;;;;;;0.28;0.28;;;7.90;99.90;;;;;;5034296;28;20041;-74
2023/05/31 00:33:44;;;;;;;0.30;0.30;;;7.90;99.90;;;;;;5033677;28;20075;-74
2023/05/31 00:36:09;;;;;;;0.20;0.20;;;7.90;99.90;;;;;;5033523;28;20033;-74
2023/05/31 00:38:35;;;;;;;0.20;0.20;;;7.90;99.90;;;;;;5033903;28;20029;-74
2023/05/31 00:41:00;;;;;;;0.25;0.25;;;7.90;99.90;;;;;;5033422;28;20087;-74
2023/05/31 00:43:26;;;;;;;0.20;0.20;;;7.90;99.90;;;;;;5033561;28;20029;-74
2023/05/31 00:45:51;;;;;;;0.20;0.20;;;7.90;99.90;;;;;;5033196;28;20028;-74
2023/05/31 00:48:17;;;;;;;0.20;0.20;;;7.80;99.90;;;;;;5033469;28;20028;-74
2023/05/31 00:50:43;;;;;;;0.30;0.30;;;7.80;99.90;;;;;;5033110;28;20044;-74
2023/05/31 00:53:08;;;;;;;0.20;0.20;;;7.80;99.90;;;;;;5033100;28;20068;-74
2023/05/31 00:55:35;;;;;;;0.30;0.30;;;7.90;99.90;;;;;;5033159;28;20028;-74
2023/05/31 00:58:01;;;;;;;0.30;0.30;;;7.90;99.90;;;;;;5033201;28;20044;-75
2023/05/31 01:00:28;;;;;;;0.17;0.17;;;7.90;99.90;;;;;;5033096;28;20027;-74
2023/05/31 01:02:54;;;;;;;0.28;0.28;;;7.90;99.90;;;;;;5032978;28;20490;-75
2023/05/31 01:05:19;;;;;;;0.22;0.22;;;7.90;99.90;;;;;;5033189;28;20071;-74
2023/05/31 01:07:45;;;;;;;0.28;0.28;;;7.80;99.90;;;;;;5033227;28;20033;-74
2023/05/31 01:10:13;;;;;;;0.20;0.20;;;7.80;99.90;;;;;;5033157;28;20032;-74
2023/05/31 01:13:01;;;;;;;0.10;0.10;;;7.70;99.90;;;;;;5033085;28;20033;-75
2023/05/31 01:15:32;;;;;;;0.20;0.20;;;7.70;99.90;;;;;;5032793;28;20099;-74
2023/05/31 01:18:01;;;;;;;0.20;0.20;;;7.60;99.90;;;;;;5032991;28;20486;-74
2023/05/31 01:20:32;;;;;;;0.20;0.20;;;7.60;99.90;;;;;;5032826;28;20039;-74
2023/05/31 01:23:02;;;;;;;0.28;0.28;;;7.60;99.90;;;;;;5032581;28;20117;-75
2023/05/31 01:26:22;;;;;;;0.30;0.30;;;7.60;99.90;;;;;;5032883;28;20479;-75
2023/05/31 01:28:55;;;;;;;0.20;0.20;;;7.60;99.90;;;;;;4972020;28;20034;-75
2023/05/31 01:31:21;;;;;;;0.20;0.20;;;7.50;99.90;;;;;;5031423;28;20116;-74
2023/05/31 01:33:48;;;;;;;0.20;0.20;;;7.50;99.90;;;;;;5032603;28;20029;-74
2023/05/31 01:36:14;;;;;;;0.20;0.20;;;7.40;99.90;;;;;;5032557;28;20415;-74
2023/05/31 01:38:39;;;;;;;0.20;0.20;;;7.40;99.90;;;;;;5032545;28;20022;-74
2023/05/31 01:41:06;;;;;;;0.20;0.20;;;7.40;99.90;;;;;;5032525;28;20035;-74
2023/05/31 01:43:33;;;;;;;0.25;0.25;;;7.40;99.90;;;;;;5032891;28;20099;-74
2023/05/31 01:46:00;;;;;;;0.20;0.20;;;7.40;99.90;;;;;;5032520;28;20021;-75
2023/05/31 01:48:26;;;;;;;0.30;0.30;;;7.50;99.90;;;;;;5032730;28;20029;-74
2023/05/31 01:50:53;;;;;;;0.30;0.30;;;7.40;99.90;;;;;;5032540;28;20445;-75
2023/05/31 01:53:18;;;;;;;0.20;0.20;;;7.40;99.90;;;;;;5032479;28;20025;-74
2023/05/31 01:55:46;;;;;;;0.20;0.20;;;7.30;99.90;;;;;;5032461;28;20037;-75
2023/05/31 01:58:12;;;;;;;0.30;0.30;;;7.30;99.90;;;;;;5032495;28;20030;-74
2023/05/31 02:00:40;;;;;;;0.20;0.20;;;7.20;99.90;;;;;;5032577;28;20044;-74
2023/05/31 02:03:05;;;;;;;0.30;0.30;;;7.20;99.90;;;;;;5032485;28;20021;-74
2023/05/31 02:05:31;;;;;;;0.20;0.20;;;7.10;99.90;;;;;;5033014;28;20549;-74
2023/05/31 02:07:57;;;;;;;0.20;0.20;;;7.10;99.90;;;;;;5036080;28;20380;-74
2023/05/31 02:10:22;;;;;;;0.20;0.20;;;7.10;99.90;;;;;;5036113;28;20034;-74
2023/05/31 02:12:50;;;;;;;0.20;0.20;;;7.00;99.90;;;;;;5036226;28;20502;-74
2023/05/31 02:15:19;;;;;;;0.22;0.22;;;7.00;99.90;;;;;;5034848;28;20499;-74
2023/05/31 02:17:46;;;;;;;0.20;0.20;;;7.00;99.90;;;;;;5036280;28;20030;-74
2023/05/31 02:20:15;;;;;;;0.20;0.20;;;7.00;99.90;;;;;;5036042;28;20021;-74
2023/05/31 02:22:44;;;;;;;0.20;0.20;;;7.00;99.90;;;;;;5035963;28;20509;-75
2023/05/31 02:25:11;;;;;;;0.20;0.20;;;6.90;99.90;;;;;;5035830;28;20029;-74
2023/05/31 02:27:37;;;;;;;0.17;0.17;;;6.90;99.90;;;;;;5035920;28;20059;-74
2023/05/31 02:30:05;;;;;;;0.28;0.28;;;6.90;99.90;;;;;;5035715;28;20079;-74
2023/05/31 02:32:35;;;;;;;0.25;0.25;;;6.90;99.90;;;;;;5035989;28;20045;-74
2023/05/31 02:35:06;;;;;;;0.20;0.20;;;6.80;99.90;;;;;;5035720;28;20025;-74
2023/05/31 02:37:32;;;;;;;0.25;0.25;;;6.80;99.90;;;;;;5036397;28;20436;-74
2023/05/31 02:39:58;;;;;;;0.30;0.30;;;6.80;99.90;;;;;;5035431;28;20509;-75
2023/05/31 02:42:23;;;;;;;0.20;0.20;;;6.70;99.90;;;;;;5035734;28;20025;-75
2023/05/31 02:44:49;;;;;;;0.30;0.30;;;6.70;99.90;;;;;;5035288;28;20025;-74
2023/05/31 02:47:15;;;;;;;0.20;0.20;;;6.70;99.90;;;;;;5035428;28;20041;-74
2023/05/31 02:49:40;;;;;;;0.20;0.20;;;6.60;99.90;;;;;;5035627;28;20095;-74
2023/05/31 02:52:06;;;;;;;0.20;0.20;;;6.70;99.90;;;;;;5035119;28;20064;-74
2023/05/31 02:54:32;;;;;;;0.20;0.20;;;6.80;99.90;;;;;;5035332;28;20030;-74
2023/05/31 02:56:58;;;;;;;0.20;0.20;;;6.90;99.90;;;;;;5035322;28;20486;-74
2023/05/31 02:59:24;;;;;;;0.22;0.22;;;7.00;99.90;;;;;;5035405;28;20564;-74
2023/05/31 03:01:50;;;;;;;0.20;0.20;;;7.00;99.90;;;;;;5035233;28;20029;-75
2023/05/31 03:04:15;;;;;;;0.30;0.30;;;7.00;99.90;;;;;;5035090;28;20047;-75
2023/05/31 03:06:42;;;;;;;0.20;0.20;;;7.00;99.90;;;;;;5035565;28;20018;-74
2023/05/31 03:09:08;;;;;;;0.20;0.20;;;7.10;99.90;;;;;;5035169;28;20071;-74
2023/05/31 03:11:33;;;;;;;0.20;0.20;;;7.10;99.90;;;;;;5035372;28;20438;-74
2023/05/31 03:13:59;;;;;;;0.20;0.20;;;7.10;99.90;;;;;;5035569;28;20032;-74
2023/05/31 03:16:24;;;;;;;0.20;0.20;;;7.00;99.90;;;;;;5034713;28;20029;-74
2023/05/31 03:18:50;;;;;;;0.28;0.28;;;6.90;99.90;;;;;;5035460;28;20395;-74
2023/05/31 03:21:16;;;;;;;0.20;0.20;;;6.80;99.90;;;;;;5034984;28;20037;-75
2023/05/31 03:23:42;;;;;;;0.20;0.20;;;6.80;99.90;;;;;;5035026;28;20045;-74
2023/05/31 03:26:07;;;;;;;0.20;0.20;;;6.70;99.90;;;;;;5034991;28;20562;-74
2023/05/31 03:28:33;;;;;;;0.20;0.20;;;6.80;99.90;;;;;;5033979;28;20108;-74
2023/05/31 03:30:58;;;;;;;0.20;0.20;;;6.80;99.90;;;;;;5035398;28;20394;-74
2023/05/31 03:33:24;;;;;;;0.28;0.28;;;6.90;99.90;;;;;;5034988;28;20032;-74
2023/05/31 03:35:50;;;;;;;0.20;0.20;;;6.90;99.90;;;;;;5036230;28;20112;-74
2023/05/31 03:38:15;;;;;;;0.17;0.17;;;7.10;99.90;;;;;;5035982;28;20038;-74
2023/05/31 03:40:41;;;;;;;0.20;0.20;;;7.10;99.90;;;;;;5035983;28;20036;-74
2023/05/31 03:43:06;;;;;;;0.25;0.25;;;7.40;99.90;;;;;;5034613;28;20487;-74
2023/05/31 03:45:32;;;;;;;0.20;0.20;;;7.40;99.90;;;;;;5034131;28;20065;-74
2023/05/31 03:47:57;;;;;;;0.10;0.10;;;7.50;99.90;;;;;;5034440;28;20021;-74
2023/05/31 03:50:23;;;;;;;0.20;0.20;;;7.50;99.90;;;;;;5034409;28;20406;-74
2023/05/31 03:52:48;;;;;;;0.20;0.20;;;7.50;99.90;;;;;;5034309;28;20026;-74
2023/05/31 03:55:14;;;;;;;0.20;0.20;;;7.50;99.90;;;;;;5034083;28;20072;-75
2023/05/31 03:57:39;;;;;;;0.20;0.20;;;7.60;99.90;;;;;;5033976;28;20056;-75
2023/05/31 04:00:06;;;;;;;0.20;0.20;;;7.60;99.90;;;;;;5034459;28;20039;-75
2023/05/31 04:02:31;;;;;;;0.13;0.13;;;7.70;99.90;;;;;;5034164;28;20033;-74
2023/05/31 04:04:57;;;;;;;0.20;0.20;;;7.80;99.90;;;;;;5033947;28;20017;-75
2023/05/31 04:07:23;;;;;;;0.20;0.20;;;7.80;99.90;;;;;;5033794;28;20022;-75
2023/05/31 04:09:48;;;;;;;0.25;0.25;;;7.80;99.90;;;;;;5033971;28;20028;-75
2023/05/31 04:12:14;;;;;;;0.22;0.22;;;8.00;99.90;;;;;;5033851;28;20034;-75
2023/05/31 04:14:40;;;;;;;0.20;0.20;;;8.10;99.90;;;;;;5033862;28;20017;-75
2023/05/31 04:17:05;;;;;;;0.10;0.10;;;8.20;99.90;;;;;;5034010;28;20041;-75
2023/05/31 04:19:31;;;;;;;0.10;0.10;;;8.20;99.90;;;;;;5034059;28;20049;-75
2023/05/31 04:21:56;;;;;;;0.20;0.20;;;8.20;99.90;;;;;;5034069;28;20026;-74
2023/05/31 04:24:22;;;;;;;0.20;0.20;;;8.30;99.90;;;;;;5033878;28;20075;-75
2023/05/31 04:26:48;;;;;;;0.20;0.20;;;8.40;99.90;;;;;;5033895;28;20436;-75
2023/05/31 04:29:13;;;;;;;0.20;0.20;;;8.50;99.90;;;;;;5033244;28;20514;-74
2023/05/31 04:31:39;;;;;;;0.20;0.20;;;8.60;99.90;;;;;;5034046;28;20034;-75
2023/05/31 04:34:05;;;;;;;0.22;0.22;;;8.80;99.90;;;;;;5033528;28;20047;-74
2023/05/31 04:36:32;;;;;;;0.25;0.25;;;9.00;99.90;;;;;;5034085;28;20033;-75
2023/05/31 04:38:59;;;;;;;0.20;0.20;;;9.00;99.90;;;;;;5033713;28;20029;-74
2023/05/31 04:41:26;;;;;;;0.20;0.20;;;9.10;99.90;;;;;;5033610;28;20176;-75
2023/05/31 04:43:53;;;;;;;0.20;0.20;;;9.10;99.90;;;;;;5033667;28;20020;-75
2023/05/31 04:46:19;;;;;;;0.20;0.20;;;9.20;99.90;;;;;;5033777;28;20476;-74
2023/05/31 04:48:49;;;;;;;0.20;0.20;;;9.30;99.90;;;;;;5033527;28;20032;-75
2023/05/31 04:51:16;;;;;;;0.10;0.10;;;9.40;99.90;;;;;;5033604;28;20026;-75
2023/05/31 04:53:41;;;;;;;0.20;0.20;;;9.40;99.90;;;;;;5033582;28;20049;-75
2023/05/31 04:56:09;;;;;;;0.20;0.20;;;9.50;99.90;;;;;;5033316;28;20483;-75
2023/05/31 04:58:35;;;;;;;0.20;0.20;;;9.60;99.90;;;;;;5033398;28;20404;-75
2023/05/31 05:01:00;;;;;;;0.10;0.10;;;9.70;99.90;;;;;;5033289;28;20030;-75
2023/05/31 05:03:26;;;;;;;0.20;0.20;;;9.80;99.90;;;;;;5033503;28;20037;-75
2023/05/31 05:05:52;;;;;;;0.20;0.20;;;10.00;99.90;;;;;;5033264;28;20047;-75
2023/05/31 05:08:18;;;;;;;0.20;0.20;;;10.10;99.90;;;;;;5033222;28;20033;-75
2023/05/31 05:10:44;;;;;;;0.10;0.10;;;10.20;99.90;;;;;;5033207;28;20398;-75
2023/05/31 05:13:10;;;;;;;0.20;0.20;;;10.20;99.90;;;;;;5033459;28;20032;-75
2023/05/31 05:15:35;;;;;;;0.20;0.20;;;10.30;99.90;;;;;;5033144;28;20030;-75
2023/05/31 05:18:01;;;;;;;0.13;0.13;;;10.30;99.90;;;;;;5033187;28;20033;-74
2023/05/31 05:20:27;;;;;;;0.20;0.20;;;10.30;99.90;;;;;;5033016;28;20493;-75
2023/05/31 05:22:52;;;;;;;0.17;0.17;;;10.50;99.90;;;;;;5033380;28;20101;-75
2023/05/31 05:25:20;;;;;;;0.20;0.20;;;10.50;99.90;;;;;;5032912;28;20018;-75
2023/05/31 05:27:46;;;;;;;0.13;0.13;;;10.50;99.90;;;;;;5033103;28;20033;-75
2023/05/31 05:30:12;;;;;;;0.10;0.10;;;10.60;99.90;;;;;;5033276;28;20551;-75
2023/05/31 05:32:37;;;;;;;0.20;0.20;;;10.70;99.90;;;;;;5032935;28;20114;-75
2023/05/31 05:35:03;;;;;;;0.20;0.20;;;10.70;99.90;;;;;;5032907;28;20041;-74
2023/05/31 05:37:28;;;;;;;0.20;0.20;;;10.80;99.90;;;;;;5032984;28;20057;-75
2023/05/31 05:39:54;;;;;;;0.20;0.20;;;10.80;99.90;;;;;;5033950;28;20029;-77
2023/05/31 05:42:19;;;;;;;0.20;0.20;;;10.80;99.90;;;;;;5037152;28;20052;-75
2023/05/31 05:44:45;;;;;;;0.20;0.20;;;10.80;99.90;;;;;;5036863;28;20606;-75
2023/05/31 05:47:12;;;;;;;0.10;0.10;;;10.80;99.90;;;;;;5036972;28;20026;-75
2023/05/31 05:49:37;;;;;;;0.10;0.10;;;10.90;99.90;;;;;;5036925;28;20017;-75
2023/05/31 05:52:03;;;;;;;0.20;0.20;;;11.10;99.90;;;;;;5036735;28;20025;-75
2023/05/31 05:54:29;;;;;;;0.10;0.10;;;11.10;99.90;;;;;;5035771;28;20021;-75
2023/05/31 05:56:55;;;;;;;0.20;0.20;;;11.30;99.90;;;;;;5036708;28;20055;-75
2023/05/31 05:59:21;;;;;;;0.17;0.17;;;11.60;99.90;;;;;;5036994;28;20018;-75
2023/05/31 06:01:46;;;;;;;0.10;0.10;;;11.80;99.90;;;;;;5036718;28;20387;-75
2023/05/31 06:04:12;;;;;;;0.20;0.20;;;11.80;99.90;;;;;;5036751;28;20140;-76
2023/05/31 06:06:37;;;;;;;0.20;0.20;;;11.90;99.90;;;;;;5036784;28;20032;-76
2023/05/31 06:09:03;;;;;;;0.20;0.20;;;11.70;99.90;;;;;;5036571;28;20083;-76
2023/05/31 06:11:28;;;;;;;0.10;0.10;;;11.60;99.90;;;;;;5036628;28;20033;-76
2023/05/31 06:13:56;;;;;;;0.20;0.20;;;11.50;99.90;;;;;;5036722;28;20025;-75
2023/05/31 06:16:22;;;;;;;0.20;0.20;;;11.50;99.90;;;;;;5036301;28;20047;-75
2023/05/31 06:18:48;;;;;;;0.20;0.20;;;11.60;99.90;;;;;;5036933;28;20037;-76
2023/05/31 06:21:13;;;;;;;0.10;0.10;;;11.90;99.90;;;;;;5036448;28;20025;-76
2023/05/31 06:23:39;;;;;;;0.20;0.20;;;12.00;99.90;;;;;;5036218;28;20437;-76
2023/05/31 06:26:04;;;;;;;0.17;0.17;;;12.00;99.90;;;;;;5036205;28;20013;-76
2023/05/31 06:28:30;;;;;;;0.20;0.20;;;12.10;99.90;;;;;;5035006;28;20479;-76
2023/05/31 06:30:56;;;;;;;0.15;0.15;;;12.20;99.90;;;;;;5036145;28;20029;-76
2023/05/31 06:33:22;;;;;;;0.20;0.20;;;12.40;99.90;;;;;;5036004;28;20104;-75
2023/05/31 06:35:47;;;;;;;0.20;0.20;;;12.50;99.90;;;;;;5035920;28;20076;-75
2023/05/31 06:38:15;;;;;;;0.20;0.20;;;12.80;99.90;;;;;;5036044;28;20108;-76
2023/05/31 06:40:42;;;;;;;0.20;0.20;;;13.00;99.90;;;;;;5036203;28;20387;-75
2023/05/31 06:43:08;;;;;;;0.20;0.20;;;13.00;99.90;;;;;;5035892;28;20044;-75
2023/05/31 06:45:33;;;;;;;0.20;0.20;;;13.20;99.90;;;;;;5035846;28;20022;-76
2023/05/31 06:47:59;;;;;;;0.20;0.20;;;13.20;99.90;;;;;;5035756;28;20021;-75
2023/05/31 06:50:24;;;;;;;0.10;0.10;;;13.30;99.90;;;;;;5035720;28;20026;-76
2023/05/31 06:52:50;;;;;;;0.20;0.20;;;13.40;99.90;;;;;;5035053;28;20040;-75
2023/05/31 06:55:15;;;;;;;0.10;0.10;;;13.60;99.90;;;;;;5035638;28;20439;-76
2023/05/31 06:57:41;;;;;;;0.10;0.10;;;13.90;99.90;;;;;;5034493;28;20549;-76
2023/05/31 07:00:07;;;;;;;0.20;0.20;;;14.20;99.90;;;;;;5035479;28;20030;-76
2023/05/31 07:02:33;;;;;;;0.20;0.20;;;14.20;99.90;;;;;;5035565;28;20033;-76
2023/05/31 07:04:59;;;;;;;0.10;0.10;;;14.30;99.90;;;;;;5035427;28;20018;-76
2023/05/31 07:07:25;;;;;;;0.20;0.20;;;14.20;99.90;;;;;;5035589;28;20387;-76
2023/05/31 07:09:51;;;;;;;0.20;0.20;;;14.10;99.90;;;;;;5035639;28;20029;-76
2023/05/31 07:12:17;;;;;;;0.20;0.20;;;14.00;99.90;;;;;;5029846;28;20064;-75
2023/05/31 07:14:42;;;;;;;0.10;0.10;;;14.10;99.90;;;;;;5015443;28;20028;-76
2023/05/31 07:17:08;;;;;;;0.20;0.20;;;14.10;99.90;;;;;;5015563;28;20026;-76
2023/05/31 07:19:46;;;;;;;0.10;0.10;;;14.30;99.90;;;;;;5015558;28;20118;-76
2023/05/31 07:22:16;;;;;;;0.20;0.20;;;14.40;99.90;;;;;;5015603;28;20065;-76
2023/05/31 07:24:42;;;;;;;0.20;0.20;;;14.60;99.90;;;;;;5015675;28;20054;-76
2023/05/31 07:27:08;;;;;;;0.13;0.13;;;14.60;99.90;;;;;;5028511;28;20037;-76
2023/05/31 07:29:34;;;;;;;0.20;0.20;;;14.50;99.90;;;;;;5035583;28;20021;-75
2023/05/31 07:31:59;;;;;;;0.10;0.10;;;14.50;99.90;;;;;;5036156;28;20117;-76
2023/05/31 07:34:25;;;;;;;0.20;0.20;;;14.70;99.90;;;;;;5036228;28;20061;-75
2023/05/31 07:36:50;;;;;;;0.15;0.15;;;14.60;99.90;;;;;;5036525;28;20467;-75
2023/05/31 07:39:16;;;;;;;0.20;0.20;;;14.60;99.90;;;;;;5034882;28;20238;-75
2023/05/31 07:41:42;;;;;;;0.10;0.10;;;14.70;99.90;;;;;;5035014;28;20048;-76
2023/05/31 07:44:08;;;;;;;0.20;0.20;;;14.80;99.90;;;;;;5034541;28;20018;-75
2023/05/31 07:46:35;;;;;;;0.10;0.10;;;15.00;99.90;;;;;;5034397;28;20108;-75
2023/05/31 07:49:02;;;;;;;0.20;0.20;;;15.10;99.90;;;;;;5034305;28;20018;-76
2023/05/31 07:51:31;;;;;;;0.10;0.10;;;15.30;99.90;;;;;;5034608;28;20079;-76
2023/05/31 07:53:57;;;;;;;0.10;0.10;;;15.40;99.90;;;;;;5034193;28;20037;-76
2023/05/31 07:56:23;;;;;;;0.20;0.20;;;15.40;99.90;;;;;;5034475;28;20026;-75
2023/05/31 07:58:48;;;;;;;0.20;0.20;;;15.40;99.90;;;;;;5034769;28;20084;-75
2023/05/31 08:01:14;;;;;;;0.10;0.10;;;15.80;99.90;;;;;;5034327;28;20112;-76
2023/05/31 08:03:41;;;;;;;0.20;0.20;;;16.10;99.90;;;;;;5033490;28;20100;-75
2023/05/31 08:06:06;;;;;;;0.20;0.20;;;16.10;99.90;;;;;;5034386;28;20030;-75
2023/05/31 08:08:35;;;;;;;0.17;0.17;;;16.10;99.90;;;;;;5034288;28;20071;-75
2023/05/31 08:11:01;;;;;;;0.10;0.10;;;16.20;99.90;;;;;;5034245;28;20029;-76
2023/05/31 08:13:28;;;;;;;0.20;0.20;;;16.40;99.90;;;;;;5033946;28;20091;-76
2023/05/31 08:15:54;;;;;;;0.20;0.20;;;16.40;99.90;;;;;;5033986;28;20471;-76
2023/05/31 08:18:20;;;;;;;0.20;0.20;;;16.30;99.90;;;;;;5038532;28;20029;-77
2023/05/31 08:20:45;;;;;;;0.20;0.20;;;16.20;99.90;;;;;;5034889;28;20124;-78
2023/05/31 08:23:21;;;;;;;0.20;0.20;;;16.60;99.90;;;;;;5036788;28;20494;-78
2023/05/31 08:25:47;;;;;;;0.20;0.20;;;16.40;99.90;;;;;;5035715;28;20029;-78
2023/05/31 08:28:13;;;;;;;0.10;0.10;;;16.60;99.90;;;;;;5035300;28;20029;-78
2023/05/31 08:30:38;;;;;;;0.20;0.20;;;16.70;99.90;;;;;;5035031;28;20076;-77
2023/05/31 08:33:04;;;;;;;0.10;0.10;;;16.80;99.90;;;;;;5034840;28;20442;-77
2023/05/31 08:35:31;;;;;;;0.20;0.20;;;16.90;99.90;;;;;;5056638;23;20487;-69
2023/05/31 08:37:57;;;;;;;0.17;0.17;;;16.90;99.90;;;;;;5033768;28;20116;-69
2023/05/31 08:40:23;;;;;;;0.13;0.13;;;16.80;99.90;;;;;;5033430;28;20395;-70
2023/05/31 08:43:15;;;;;;;0.20;0.20;;;17.00;99.90;;;;;;5033877;28;20053;-70
2023/05/31 08:45:42;;;;;;;0.15;0.15;;;17.10;99.90;;;;;;5032258;28;20028;-70
2023/05/31 08:48:17;;;;;;;0.10;0.10;;;17.10;99.90;;;;;;5033144;28;20032;-70
2023/05/31 08:50:43;;;;;;;0.10;0.10;;;17.20;99.90;;;;;;5033898;28;20041;-70
2023/05/31 08:53:09;;;;;;;0.10;0.10;;;17.00;99.90;;;;;;5033507;28;20124;-70
2023/05/31 08:55:36;;;;;;;0.15;0.15;;;17.00;99.90;;;;;;5033442;28;20036;-69
2023/05/31 08:58:03;;;;;;;0.13;0.13;;;17.00;99.90;;;;;;5033409;28;20109;-70
2023/05/31 09:00:29;;;;;;;0.20;0.20;;;17.00;99.90;;;;;;5033328;28;20538;-70
2023/05/31 09:02:55;;;;;;;0.10;0.10;;;16.90;99.90;;;;;;5033159;28;20120;-71
2023/05/31 09:05:20;;;;;;;0.20;0.20;;;16.90;99.90;;;;;;5033241;28;20387;-71
2023/05/31 09:07:49;;;;;;;0.10;0.10;;;17.10;99.90;;;;;;5033017;28;20037;-71
2023/05/31 09:10:16;;;;;;;0.10;0.10;;;16.90;99.90;;;;;;5033525;28;20471;-70
2023/05/31 09:12:42;;;;;;;0.20;0.20;;;17.00;99.90;;;;;;5033155;28;20068;-70
2023/05/31 09:15:14;;;;;;;0.20;0.20;;;17.30;99.90;;;;;;5032861;28;20418;-71
2023/05/31 09:17:42;;;;;;;0.10;0.10;;;17.40;99.90;;;;;;5033034;28;20034;-71
2023/05/31 09:20:09;;;;;;;0.20;0.20;;;17.30;99.90;;;;;;5033445;28;20440;-70
2023/05/31 09:22:34;;;;;;;0.20;0.20;;;17.20;99.90;;;;;;5032838;28;20041;-71
2023/05/31 09:25:00;;;;;;;0.20;0.20;;;17.30;99.90;;;;;;5033170;28;20471;-70
2023/05/31 09:27:33;;;;;;;0.20;0.20;;;17.50;99.90;;;;;;5032860;28;20037;-70
2023/05/31 09:30:04;;;;;;;0.20;0.20;;;17.60;99.90;;;;;;5032858;28;20047;-72
2023/05/31 09:32:29;;;;;;;0.20;0.20;;;17.80;99.90;;;;;;5032904;28;20076;-71
2023/05/31 09:35:09;;;;;;;0.10;0.10;;;17.60;99.90;;;;;;5032626;28;20037;-71
2023/05/31 09:37:45;;;;;;;0.20;0.20;;;17.50;99.90;;;;;;5032844;28;20479;-70
2023/05/31 09:40:24;;;;;;;0.10;0.10;;;17.50;99.90;;;;;;5033158;28;20069;-70
2023/05/31 09:42:51;;;;;;;0.20;0.20;;;17.60;99.90;;;;;;5033104;28;20112;-70
2023/05/31 09:45:17;;;;;;;0.17;0.17;;;17.70;99.90;;;;;;5032791;28;20467;-71
2023/05/31 09:47:44;;;;;;;0.20;0.20;;;17.90;99.90;;;;;;5032907;28;20022;-70
2023/05/31 09:50:10;;;;;;;0.20;0.20;;;17.80;99.90;;;;;;5032681;28;20071;-70
2023/05/31 09:52:40;;;;;;;0.20;0.20;;;17.80;99.90;;;;;;5032881;28;20063;-70
2023/05/31 09:55:07;;;;;;;0.10;0.10;;;18.00;99.90;;;;;;5031287;28;20104;-71
2023/05/31 09:57:40;;;;;;;0.10;0.10;;;18.00;99.90;;;;;;5032529;28;20104;-71
2023/05/31 10:00:20;;;;;;;0.20;0.20;;;17.80;99.90;;;;;;5032605;28;20030;-71
2023/05/31 10:02:47;;;;;;;0.10;0.10;;;17.80;99.90;;;;;;5032713;28;20094;-71
2023/05/31 10:05:14;;;;;;;0.20;0.20;;;17.50;99.90;;;;;;5032820;28;20031;-72
2023/05/31 10:07:41;;;;;;;0.20;0.20;;;17.30;99.90;;;;;;5032614;28;20101;-71
2023/05/31 10:10:08;;;;;;;0.10;0.10;;;17.30;99.90;;;;;;5031646;28;20075;-70
2023/05/31 10:12:54;;;;;;;0.10;0.10;;;17.30;99.90;;;;;;5032558;28;20466;-71
2023/05/31 10:15:22;;;;;;;0.20;0.20;;;17.30;99.90;;;;;;5032506;28;20446;-70
2023/05/31 10:18:06;;;;;;;0.17;0.17;;;17.10;99.90;;;;;;5032634;28;20476;-70
2023/05/31 10:20:47;;;;;;;0.10;0.10;;;17.00;99.90;;;;;;5032583;28;20037;-72
2023/05/31 10:23:20;;;;;;;0.15;0.15;;;16.80;99.90;;;;;;5031325;28;20030;-71
2023/05/31 10:25:53;;;;;;;0.20;0.20;;;16.70;99.90;;;;;;5032471;28;20018;-72
2023/05/31 10:28:22;;;;;;;0.13;0.13;;;16.90;99.90;;;;;;5035663;28;20419;-69
2023/05/31 10:30:51;;;;;;;0.10;0.10;;;17.10;99.90;;;;;;5035943;28;20055;-71
2023/05/31 10:33:19;;;;;;;0.20;0.20;;;17.30;99.90;;;;;;5036106;28;20044;-71
2023/05/31 10:35:45;;;;;;;0.10;0.10;;;17.30;99.90;;;;;;5035780;28;20038;-71
2023/05/31 10:38:12;;;;;;;0.20;0.20;;;17.20;99.90;;;;;;5036004;28;20029;-71
2023/05/31 10:40:51;;;;;;;0.15;0.15;;;17.30;99.90;;;;;;5035728;28;20082;-71
2023/05/31 10:43:24;;;;;;;0.10;0.10;;;17.40;99.90;;;;;;5035962;28;20072;-72
2023/05/31 10:46:02;;;;;;;0.20;0.20;;;17.30;99.90;;;;;;5035720;28;20041;-71
2023/05/31 10:48:45;;;;;;;0.10;0.10;;;17.50;99.90;;;;;;5036370;28;20108;-71
2023/05/31 10:51:12;;;;;;;0.13;0.13;;;17.40;99.90;;;;;;5035756;28;20022;-72
2023/05/31 10:53:38;;;;;;;0.20;0.20;;;17.30;99.90;;;;;;5035508;28;20051;-72
2023/05/31 10:56:09;;;;;;;0.20;0.20;;;17.10;99.90;;;;;;5035625;28;20060;-71
2023/05/31 10:58:39;;;;;;;0.20;0.20;;;17.10;99.90;;;;;;5035600;28;20022;-72
2023/05/31 11:01:07;;;;;;;0.20;0.20;;;17.10;99.90;;;;;;5035435;28;20030;-72
2023/05/31 11:03:42;;;;;;;0.17;0.17;;;17.10;99.90;;;;;;5035498;28;20022;-71
2023/05/31 11:06:09;;;;;;;0.10;0.10;;;17.10;99.90;;;;;;5035431;28;20418;-71
2023/05/31 11:08:34;;;;;;;0.10;0.10;;;17.50;99.90;;;;;;5035491;28;20014;-72
2023/05/31 11:11:31;;;;;;;0.10;0.10;;;17.20;99.90;;;;;;5035364;28;20029;-72
2023/05/31 11:13:58;;;;;;;0.20;0.20;;;17.00;99.90;;;;;;5035591;28;20025;-71
2023/05/31 11:16:25;;;;;;;0.10;0.10;;;17.00;99.90;;;;;;5035161;28;20029;-72
2023/05/31 11:19:02;;;;;;;0.20;0.20;;;17.00;99.90;;;;;;5034728;28;20029;-72
2023/05/31 11:21:47;;;;;;;0.20;0.20;;;17.20;99.90;;;;;;5033512;28;20033;-72
2023/05/31 11:24:29;;;;;;;0.20;0.20;;;17.50;99.90;;;;;;5034904;28;20053;-72
2023/05/31 11:26:57;;;;;;;0.20;0.20;;;17.60;99.90;;;;;;5034679;28;20506;-72
2023/05/31 11:29:23;;;;;;;0.10;0.10;;;17.70;99.90;;;;;;5034578;28;20030;-72
2023/05/31 11:31:54;;;;;;;0.15;0.15;;;17.80;99.90;;;;;;5034822;28;20131;-71
2023/05/31 11:34:23;;;;;;;0.10;0.10;;;17.70;99.90;;;;;;5034882;28;20041;-72
2023/05/31 11:36:49;;;;;;;0.10;0.10;;;17.50;99.90;;;;;;5033387;28;20073;-72
2023/05/31 11:39:16;;;;;;;0.10;0.10;;;17.60;99.90;;;;;;5034001;28;20545;-72
2023/05/31 11:41:43;;;;;;;0.20;0.20;;;17.50;99.90;;;;;;5034778;28;20471;-71
2023/05/31 11:44:11;;;;;;;0.13;0.13;;;17.40;99.90;;;;;;5034712;28;20483;-73
2023/05/31 11:46:44;;;;;;;0.20;0.20;;;17.50;99.90;;;;;;5034649;28;20029;-72
2023/05/31 11:49:10;;;;;;;0.17;0.17;;;17.80;99.90;;;;;;5034525;28;20513;-72
2023/05/31 11:51:36;;;;;;;0.10;0.10;;;18.00;99.90;;;;;;5034688;28;20037;-72
2023/05/31 11:54:03;;;;;;;0.10;0.10;;;18.20;99.90;;;;;;5034585;28;20045;-71
2023/05/31 11:56:36;;;;;;;0.13;0.13;;;18.40;99.90;;;;;;5033165;28;20402;-71
2023/05/31 11:59:02;;;;;;;0.10;0.10;;;18.40;99.90;;;;;;5034519;28;20018;-71
2023/05/31 12:01:28;;;;;;;0.20;0.20;;;18.40;99.90;;;;;;5034393;28;20025;-71
2023/05/31 12:03:59;;;;;;;0.20;0.20;;;18.70;99.90;;;;;;5034606;28;20075;-71
2023/05/31 12:06:26;;;;;;;0.20;0.20;;;18.80;99.90;;;;;;5034311;28;20022;-72
2023/05/31 12:08:55;;;;;;;0.20;0.20;;;18.80;99.90;;;;;;5034088;28;20486;-72
2023/05/31 12:11:24;;;;;;;0.10;0.10;;;19.00;99.90;;;;;;5034191;28;20395;-72
2023/05/31 12:13:49;;;;;;;0.10;0.10;;;18.90;99.90;;;;;;5033658;28;20080;-72
2023/05/31 12:16:15;;;;;;;0.10;0.10;;;18.80;99.90;;;;;;5034004;28;20034;-72
2023/05/31 12:18:41;;;;;;;0.10;0.10;;;19.00;99.90;;;;;;5034104;28;20076;-71
2023/05/31 12:21:08;;;;;;;0.20;0.20;;;19.40;99.90;;;;;;5033864;28;20044;-72
2023/05/31 12:23:50;;;;;;;0.13;0.13;;;19.60;99.90;;;;;;5033733;28;20017;-71
2023/05/31 12:26:15;;;;;;;0.20;0.20;;;19.60;99.90;;;;;;5033837;28;20026;-71
2023/05/31 12:28:42;;;;;;;0.10;0.10;;;20.00;99.90;;;;;;5033923;28;20025;-71
2023/05/31 12:31:08;;;;;;;0.20;0.20;;;19.50;99.90;;;;;;5033815;28;20033;-71
2023/05/31 12:33:36;;;;;;;0.13;0.13;;;19.30;99.90;;;;;;5033792;28;20022;-70
2023/05/31 12:36:03;;;;;;;0.10;0.10;;;18.90;99.90;;;;;;5033691;28;20041;-71
2023/05/31 12:38:29;;;;;;;0.13;0.13;;;18.80;99.90;;;;;;5033743;28;20029;-72
2023/05/31 12:40:55;;;;;;;0.10;0.10;;;19.20;99.90;;;;;;5033939;28;20029;-71
2023/05/31 12:43:21;;;;;;;0.10;0.10;;;19.60;99.90;;;;;;5033623;28;20034;-71
2023/05/31 12:45:46;;;;;;;0.20;0.20;;;19.50;99.90;;;;;;5033309;28;20031;-72
2023/05/31 12:48:12;;;;;;;0.17;0.17;;;19.20;99.90;;;;;;5032272;28;20025;-72
2023/05/31 12:50:47;;;;;;;0.20;0.20;;;18.60;99.90;;;;;;5032766;28;20055;-72
2023/05/31 12:53:13;;;;;;;0.20;0.20;;;19.10;99.90;;;;;;5033377;28;20079;-71